createdAt,value
2019-01-30T00:01:17.640Z,7.33
2019-01-30T00:03:44.905Z,7.23
2019-01-30T00:06:12.309Z,6.40
2019-01-30T00:08:39.753Z,6.47
2019-01-30T00:11:06.969Z,6.53
2019-01-30T00:13:34.323Z,8.03
2019-01-30T00:16:01.656Z,7.77
2019-01-30T00:18:29.000Z,6.80
2019-01-30T00:20:56.359Z,6.00
2019-01-30T00:23:23.620Z,7.00
2019-01-30T00:25:50.964Z,6.67
2019-01-30T00:28:18.350Z,7.50
2019-01-30T00:30:45.569Z,5.60
2019-01-30T00:33:12.901Z,6.43
2019-01-30T00:35:40.112Z,7.17
2019-01-30T00:38:07.395Z,6.77
2019-01-30T00:40:34.703Z,6.63
2019-01-30T00:43:01.940Z,6.90
2019-01-30T00:45:29.280Z,7.77
2019-01-30T00:47:56.625Z,6.33
2019-01-30T00:50:24.010Z,7.47
2019-01-30T00:52:51.455Z,9.40
2019-01-30T00:55:18.881Z,9.07
2019-01-30T00:57:46.116Z,7.50
2019-01-30T01:00:16.135Z,8.10
2019-01-30T01:02:43.381Z,7.40
2019-01-30T01:05:10.796Z,6.57
2019-01-30T01:07:38.261Z,8.20
2019-01-30T01:10:07.912Z,6.33
2019-01-30T01:12:35.351Z,8.40
2019-01-30T01:15:04.364Z,8.33
2019-01-30T01:17:31.734Z,8.67
2019-01-30T01:19:59.087Z,6.40
2019-01-30T01:22:26.490Z,8.43
2019-01-30T01:24:53.672Z,7.93
2019-01-30T01:27:20.892Z,7.37
2019-01-30T01:29:48.172Z,6.40
2019-01-30T01:32:15.556Z,7.63
2019-01-30T01:34:42.866Z,10.03
2019-01-30T01:37:10.084Z,10.23
2019-01-30T01:39:37.334Z,8.17
2019-01-30T01:42:04.631Z,7.90
2019-01-30T01:44:31.843Z,10.10
2019-01-30T01:46:59.415Z,8.23
2019-01-30T01:49:26.669Z,10.33
2019-01-30T01:51:53.998Z,9.13
2019-01-30T01:54:21.247Z,11.90
2019-01-30T01:56:48.356Z,11.47
2019-01-30T01:59:15.807Z,11.70
2019-01-30T02:01:43.114Z,11.53
2019-01-30T02:04:10.337Z,13.20
2019-01-30T02:06:37.682Z,11.50
2019-01-30T02:09:08.783Z,12.60
2019-01-30T02:11:36.111Z,11.20
2019-01-30T02:14:04.140Z,9.23
2019-01-30T02:16:31.579Z,8.13
2019-01-30T02:18:58.902Z,16.00
2019-01-30T02:21:26.151Z,11.20
2019-01-30T02:23:53.384Z,12.53
2019-01-30T02:26:20.696Z,15.93
2019-01-30T02:28:47.933Z,18.70
2019-01-30T02:31:15.150Z,18.17
2019-01-30T02:33:42.588Z,18.07
2019-01-30T02:36:09.875Z,15.10
2019-01-30T02:38:37.224Z,12.30
2019-01-30T02:41:04.807Z,16.33
2019-01-30T02:43:32.119Z,13.30
2019-01-30T02:45:59.489Z,12.87
2019-01-30T02:48:26.699Z,11.67
2019-01-30T02:50:54.066Z,21.00
2019-01-30T02:53:21.374Z,13.17
2019-01-30T02:55:48.581Z,15.67
2019-01-30T02:58:15.944Z,12.90
2019-01-30T03:00:43.404Z,14.37
2019-01-30T03:03:10.721Z,15.47
2019-01-30T03:05:38.059Z,20.53
2019-01-30T03:08:05.291Z,19.47
2019-01-30T03:10:32.620Z,18.03
2019-01-30T03:12:59.948Z,18.33
2019-01-30T03:15:27.407Z,18.20
2019-01-30T03:17:54.869Z,17.33
2019-01-30T03:20:23.695Z,15.17
2019-01-30T03:22:50.943Z,11.80
2019-01-30T03:25:19.028Z,14.70
2019-01-30T03:27:46.280Z,18.20
2019-01-30T03:30:18.877Z,17.23
2019-01-30T03:32:46.218Z,23.30
2019-01-30T03:35:13.662Z,17.07
2019-01-30T03:37:41.096Z,27.43
2019-01-30T03:40:11.393Z,25.67
2019-01-30T03:42:38.737Z,27.73
2019-01-30T03:45:06.779Z,19.60
2019-01-30T03:47:34.028Z,24.60
2019-01-30T03:50:01.267Z,30.47
2019-01-30T03:52:28.684Z,20.70
2019-01-30T03:54:56.033Z,21.37
2019-01-30T03:57:23.239Z,29.03
2019-01-30T03:59:50.475Z,26.50
2019-01-30T04:02:17.833Z,30.17
2019-01-30T04:04:45.407Z,31.50
2019-01-30T04:07:12.686Z,34.20
2019-01-30T04:09:39.911Z,30.67
2019-01-30T04:12:07.254Z,30.63
2019-01-30T04:14:34.560Z,40.87
2019-01-30T04:17:01.924Z,38.33
2019-01-30T04:19:29.371Z,33.90
2019-01-30T04:21:56.620Z,43.43
2019-01-30T04:24:24.090Z,40.60
2019-01-30T04:26:51.408Z,42.43
2019-01-30T04:29:18.759Z,47.17
2019-01-30T04:31:45.972Z,53.20
2019-01-30T04:34:13.294Z,54.97
2019-01-30T04:36:40.671Z,42.33
2019-01-30T04:39:07.960Z,54.63
2019-01-30T04:41:35.299Z,56.77
2019-01-30T04:44:02.553Z,51.10
2019-01-30T04:46:29.892Z,42.03
2019-01-30T04:48:57.257Z,49.70
2019-01-30T04:51:24.568Z,44.57
2019-01-30T04:53:51.789Z,37.60
2019-01-30T04:56:19.135Z,41.33
2019-01-30T04:58:46.488Z,37.43
2019-01-30T05:01:13.706Z,41.97
2019-01-30T05:03:41.010Z,39.90
2019-01-30T05:06:08.272Z,49.60
2019-01-30T05:08:35.648Z,40.93
2019-01-30T05:11:02.931Z,41.80
2019-01-30T05:13:30.172Z,43.33
2019-01-30T05:15:57.522Z,38.20
2019-01-30T05:18:24.944Z,34.93
2019-01-30T05:20:52.287Z,36.13
2019-01-30T05:23:19.716Z,35.30
2019-01-30T05:25:47.051Z,41.43
2019-01-30T05:28:14.289Z,37.57
2019-01-30T05:30:41.756Z,36.13
2019-01-30T05:33:09.081Z,36.33
2019-01-30T05:35:36.392Z,40.30
2019-01-30T05:38:03.880Z,35.63
2019-01-30T05:40:31.195Z,44.23
2019-01-30T05:42:58.407Z,44.37
2019-01-30T05:45:25.737Z,40.40
2019-01-30T05:47:53.081Z,41.93
2019-01-30T05:50:20.461Z,37.53
2019-01-30T05:52:47.887Z,29.47
2019-01-30T05:55:15.875Z,37.70
2019-01-30T05:57:43.192Z,45.90
2019-01-30T06:00:30.684Z,45.60
2019-01-30T06:02:57.996Z,40.53
2019-01-30T06:05:25.408Z,39.40
2019-01-30T06:07:52.739Z,38.60
2019-01-30T06:10:20.021Z,41.87
2019-01-30T06:12:47.427Z,44.20
2019-01-30T06:15:14.958Z,39.33
2019-01-30T06:17:42.284Z,45.17
2019-01-30T06:20:12.940Z,33.13
2019-01-30T06:22:40.475Z,32.53
2019-01-30T06:25:08.165Z,27.33
2019-01-30T06:27:35.460Z,32.20
2019-01-30T06:30:03.724Z,38.50
2019-01-30T06:32:31.043Z,34.37
2019-01-30T06:34:58.274Z,35.10
2019-01-30T06:37:25.530Z,32.23
2019-01-30T06:39:52.838Z,26.83
2019-01-30T06:42:20.200Z,36.13
2019-01-30T06:44:47.529Z,31.10
2019-01-30T06:47:14.897Z,34.37
2019-01-30T06:49:42.254Z,29.90
2019-01-30T06:52:09.664Z,29.47
2019-01-30T06:54:36.964Z,31.13
2019-01-30T06:57:04.197Z,30.40
2019-01-30T06:59:31.540Z,42.73
2019-01-30T07:01:58.831Z,39.50
2019-01-30T07:04:26.073Z,40.20
2019-01-30T07:06:53.279Z,46.53
2019-01-30T07:09:20.614Z,30.60
2019-01-30T07:11:47.928Z,32.83
2019-01-30T07:14:15.255Z,33.67
2019-01-30T07:16:42.492Z,33.97
2019-01-30T07:19:09.744Z,37.90
2019-01-30T07:21:37.083Z,29.30
2019-01-30T07:24:04.450Z,32.67
2019-01-30T07:26:31.828Z,36.77
2019-01-30T07:28:59.133Z,43.27
2019-01-30T07:31:26.419Z,33.43
2019-01-30T07:33:53.670Z,34.47
2019-01-30T07:36:21.012Z,37.27
2019-01-30T07:38:48.139Z,33.60
2019-01-30T07:41:15.365Z,36.50
2019-01-30T07:43:42.474Z,38.53
2019-01-30T07:46:09.812Z,29.50
2019-01-30T07:48:37.164Z,34.73
2019-01-30T07:51:04.396Z,42.77
2019-01-30T07:53:31.787Z,39.87
2019-01-30T07:55:59.823Z,39.63
2019-01-30T07:58:27.127Z,32.00
2019-01-30T08:00:54.447Z,38.27
2019-01-30T08:03:21.675Z,41.93
2019-01-30T08:05:48.910Z,44.03
2019-01-30T08:08:16.145Z,39.00
2019-01-30T08:10:43.347Z,39.23
2019-01-30T08:13:10.680Z,42.53
2019-01-30T08:15:37.892Z,31.53
2019-01-30T08:18:05.242Z,32.20
2019-01-30T08:20:32.880Z,37.43
2019-01-30T08:23:00.109Z,32.77
2019-01-30T08:25:27.688Z,31.77
2019-01-30T08:27:55.520Z,31.37
2019-01-30T08:30:28.019Z,33.60
2019-01-30T08:33:04.266Z,29.57
2019-01-30T08:35:26.050Z,27.60
2019-01-30T08:37:53.287Z,26.83
2019-01-30T08:40:20.718Z,29.23
2019-01-30T08:42:48.036Z,25.97
2019-01-30T08:45:17.859Z,25.93
2019-01-30T08:47:45.200Z,31.00
2019-01-30T08:50:12.969Z,30.43
2019-01-30T08:52:40.233Z,30.17
2019-01-30T08:55:08.231Z,30.47
2019-01-30T08:57:35.687Z,30.30
2019-01-30T09:00:05.168Z,29.97
2019-01-30T09:02:32.410Z,23.83
2019-01-30T09:04:59.724Z,29.67
2019-01-30T09:07:26.942Z,27.07
2019-01-30T09:09:54.294Z,29.43
2019-01-30T09:12:21.723Z,29.50
2019-01-30T09:14:48.917Z,29.57
2019-01-30T09:17:16.245Z,30.83
2019-01-30T09:19:43.673Z,31.33
2019-01-30T09:22:11.013Z,29.30
2019-01-30T09:24:38.312Z,28.03
2019-01-30T09:27:05.639Z,27.03
2019-01-30T09:29:32.948Z,28.83
2019-01-30T09:32:00.183Z,31.67
2019-01-30T09:34:27.530Z,30.60
2019-01-30T09:36:54.831Z,31.90
2019-01-30T09:39:22.097Z,37.77
2019-01-30T09:41:49.362Z,32.80
2019-01-30T09:44:16.670Z,30.53
2019-01-30T09:46:43.903Z,35.13
2019-01-30T09:49:11.228Z,29.63
2019-01-30T09:51:38.431Z,25.20
2019-01-30T09:54:05.833Z,28.60
2019-01-30T09:56:33.108Z,27.93
2019-01-30T09:59:00.527Z,32.57
2019-01-30T10:01:27.777Z,26.07
2019-01-30T10:03:55.091Z,28.63
2019-01-30T10:06:22.548Z,26.07
2019-01-30T10:08:49.857Z,24.90
2019-01-30T10:11:17.106Z,25.37
2019-01-30T10:13:44.407Z,24.93
2019-01-30T10:16:11.683Z,23.67
2019-01-30T10:18:38.963Z,27.27
2019-01-30T10:21:06.428Z,26.07
2019-01-30T10:23:33.835Z,26.00
2019-01-30T10:26:01.146Z,23.27
2019-01-30T10:28:28.476Z,24.57
2019-01-30T10:30:55.692Z,21.97
2019-01-30T10:33:23.034Z,23.57
2019-01-30T10:35:50.384Z,22.30
2019-01-30T10:38:17.775Z,21.33
2019-01-30T10:40:45.198Z,27.30
2019-01-30T10:43:12.972Z,22.60
2019-01-30T10:45:40.391Z,20.87
2019-01-30T10:48:07.605Z,24.17
2019-01-30T10:50:35.023Z,21.87
2019-01-30T10:53:02.341Z,23.47
2019-01-30T10:55:30.556Z,26.67
2019-01-30T10:57:59.553Z,25.60
2019-01-30T11:00:29.655Z,24.20
2019-01-30T11:02:57.116Z,29.87
2019-01-30T11:05:24.319Z,26.50
2019-01-30T11:07:51.524Z,24.23
2019-01-30T11:10:18.757Z,26.53
2019-01-30T11:12:45.965Z,27.77
2019-01-30T11:15:15.175Z,26.27
2019-01-30T11:17:42.381Z,23.40
2019-01-30T11:20:11.017Z,25.30
2019-01-30T11:22:38.336Z,26.23
2019-01-30T11:25:09.119Z,25.50
2019-01-30T11:27:36.353Z,26.43
2019-01-30T11:30:05.105Z,26.53
2019-01-30T11:32:32.440Z,23.27
2019-01-30T11:34:59.641Z,21.57
2019-01-30T11:37:26.971Z,28.30
2019-01-30T11:39:54.211Z,27.80
2019-01-30T11:42:21.528Z,29.57
2019-01-30T11:44:48.881Z,26.63
2019-01-30T11:47:16.216Z,20.37
2019-01-30T11:49:43.525Z,23.97
2019-01-30T11:52:10.800Z,30.27
2019-01-30T11:54:38.794Z,30.70
2019-01-30T11:57:06.544Z,26.43
2019-01-30T11:59:33.827Z,26.13
2019-01-30T12:02:01.117Z,30.67
2019-01-30T12:04:28.429Z,25.90
2019-01-30T12:06:55.777Z,24.20
2019-01-30T12:09:22.976Z,29.47
2019-01-30T12:11:50.360Z,24.97
2019-01-30T12:14:17.655Z,26.33
2019-01-30T12:16:45.071Z,31.77
2019-01-30T12:19:12.394Z,31.13
2019-01-30T12:21:39.703Z,27.30
2019-01-30T12:24:07.133Z,30.17
2019-01-30T12:26:34.447Z,28.40
2019-01-30T12:29:01.677Z,24.70
2019-01-30T12:31:29.118Z,23.17
2019-01-30T12:33:59.047Z,26.53
2019-01-30T12:36:25.729Z,23.07
2019-01-30T12:38:52.972Z,23.67
2019-01-30T12:41:20.312Z,28.93
2019-01-30T12:43:47.647Z,26.37
2019-01-30T12:46:14.989Z,23.37
2019-01-30T12:48:42.232Z,23.33
2019-01-30T12:51:09.573Z,29.17
2019-01-30T12:53:36.847Z,25.93
2019-01-30T12:56:04.201Z,26.67
2019-01-30T12:58:31.520Z,24.90
2019-01-30T13:00:58.867Z,28.90
2019-01-30T13:03:26.200Z,25.30
2019-01-30T13:05:53.404Z,24.37
2019-01-30T13:08:20.763Z,21.30
2019-01-30T13:10:47.983Z,22.13
2019-01-30T13:13:15.200Z,21.60
2019-01-30T13:15:42.431Z,22.73
2019-01-30T13:18:17.908Z,20.30
2019-01-30T13:20:38.911Z,21.60
2019-01-30T13:23:06.147Z,19.57
2019-01-30T13:25:33.563Z,22.80
2019-01-30T13:28:00.893Z,19.07
2019-01-30T13:30:33.426Z,22.37
2019-01-30T13:33:01.273Z,18.00
2019-01-30T13:35:28.587Z,23.10
2019-01-30T13:37:55.829Z,23.07
2019-01-30T13:40:25.828Z,22.20
2019-01-30T13:42:53.069Z,19.03
2019-01-30T13:45:20.413Z,18.87
2019-01-30T13:47:47.744Z,23.93
2019-01-30T13:50:17.771Z,19.03
2019-01-30T13:52:45.071Z,21.60
2019-01-30T13:55:12.410Z,18.40
2019-01-30T13:57:39.741Z,18.50
2019-01-30T14:00:14.469Z,16.87
2019-01-30T14:02:41.772Z,16.77
2019-01-30T14:05:09.192Z,16.90
2019-01-30T14:07:36.564Z,17.20
2019-01-30T14:10:04.686Z,13.97
2019-01-30T14:12:32.032Z,18.90
2019-01-30T14:14:59.396Z,19.63
2019-01-30T14:17:26.671Z,18.67
2019-01-30T14:19:54.264Z,20.57
2019-01-30T14:22:21.601Z,16.73
2019-01-30T14:24:48.936Z,20.23
2019-01-30T14:27:16.259Z,20.27
2019-01-30T14:29:43.647Z,20.20
2019-01-30T14:32:10.903Z,16.80
2019-01-30T14:34:38.244Z,18.33
2019-01-30T14:37:05.541Z,13.73
2019-01-30T14:39:32.972Z,17.23
2019-01-30T14:42:00.269Z,14.97
2019-01-30T14:44:27.800Z,12.90
2019-01-30T14:46:55.086Z,15.37
2019-01-30T14:49:22.301Z,13.50
2019-01-30T14:51:49.613Z,14.10
2019-01-30T14:54:16.901Z,15.20
2019-01-30T14:56:44.244Z,13.90
2019-01-30T14:59:11.554Z,16.17
2019-01-30T15:01:38.888Z,17.37
2019-01-30T15:04:06.285Z,13.47
2019-01-30T15:06:33.710Z,13.53
2019-01-30T15:09:01.020Z,11.27
2019-01-30T15:11:28.425Z,11.83
2019-01-30T15:13:55.689Z,11.00
2019-01-30T15:16:22.990Z,12.13
2019-01-30T15:18:50.427Z,14.80
2019-01-30T15:21:17.792Z,12.33
2019-01-30T15:23:45.201Z,12.63
2019-01-30T15:26:12.544Z,11.00
2019-01-30T15:28:39.778Z,11.93
2019-01-30T15:31:07.116Z,11.93
2019-01-30T15:33:34.341Z,13.17
2019-01-30T15:36:01.690Z,9.47
2019-01-30T15:38:29.203Z,12.77
2019-01-30T15:40:56.500Z,11.07
2019-01-30T15:43:23.792Z,13.93
2019-01-30T15:45:51.043Z,9.93
2019-01-30T15:48:18.322Z,10.90
2019-01-30T15:50:45.559Z,12.50
2019-01-30T15:53:15.428Z,13.10
2019-01-30T15:55:42.792Z,15.53
2019-01-30T15:58:10.807Z,14.27
2019-01-30T16:00:49.731Z,18.37
2019-01-30T16:03:17.063Z,16.00
2019-01-30T16:05:45.364Z,18.67
2019-01-30T16:08:12.773Z,18.00
2019-01-30T16:10:40.012Z,18.17
2019-01-30T16:13:07.346Z,20.60
2019-01-30T16:15:37.717Z,20.57
2019-01-30T16:18:05.632Z,22.97
2019-01-30T16:20:32.976Z,18.30
2019-01-30T16:23:00.216Z,21.13
2019-01-30T16:25:27.699Z,17.60
2019-01-30T16:27:55.142Z,16.77
2019-01-30T16:30:23.108Z,18.67
2019-01-30T16:32:50.428Z,16.20
2019-01-30T16:35:26.023Z,15.80
2019-01-30T16:37:53.371Z,19.00
2019-01-30T16:40:20.797Z,22.67
2019-01-30T16:42:48.243Z,18.70
2019-01-30T16:45:17.503Z,19.60
2019-01-30T16:47:44.738Z,16.33
2019-01-30T16:50:13.282Z,17.50
2019-01-30T16:52:40.699Z,21.13
2019-01-30T16:55:08.807Z,25.30
2019-01-30T16:57:36.271Z,22.87
2019-01-30T17:00:06.188Z,23.80
2019-01-30T17:02:33.450Z,24.27
2019-01-30T17:05:00.760Z,25.87
2019-01-30T17:07:28.223Z,21.10
2019-01-30T17:09:55.536Z,25.77
2019-01-30T17:12:22.994Z,24.83
2019-01-30T17:14:50.439Z,23.83
2019-01-30T17:17:17.671Z,28.33
2019-01-30T17:19:44.996Z,20.47
2019-01-30T17:22:12.441Z,22.93
2019-01-30T17:24:39.784Z,22.83
2019-01-30T17:27:07.104Z,24.37
2019-01-30T17:29:34.549Z,26.13
2019-01-30T17:32:01.906Z,24.33
2019-01-30T17:34:29.216Z,22.87
2019-01-30T17:36:56.461Z,20.77
2019-01-30T17:39:23.924Z,23.07
2019-01-30T17:41:51.296Z,22.53
2019-01-30T17:44:19.512Z,22.73
2019-01-30T17:46:46.963Z,24.73
2019-01-30T17:49:14.269Z,20.47
2019-01-30T17:51:42.993Z,20.03
2019-01-30T17:54:10.476Z,22.07
2019-01-30T17:56:37.717Z,20.97
2019-01-30T17:59:05.123Z,22.30
2019-01-30T18:01:32.780Z,19.47
2019-01-30T18:04:00.114Z,20.73
2019-01-30T18:06:30.056Z,26.30
2019-01-30T18:08:56.615Z,22.73
2019-01-30T18:11:23.926Z,25.30
2019-01-30T18:13:51.309Z,23.20
2019-01-30T18:16:18.751Z,23.33
2019-01-30T18:18:46.163Z,25.80
2019-01-30T18:21:13.394Z,27.47
2019-01-30T18:23:40.612Z,26.67
2019-01-30T18:26:07.946Z,29.20
2019-01-30T18:28:35.169Z,25.47
2019-01-30T18:31:02.531Z,31.03
2019-01-30T18:33:29.837Z,26.33
2019-01-30T18:35:57.344Z,26.57
2019-01-30T18:38:24.661Z,31.97
2019-01-30T18:40:51.997Z,28.23
2019-01-30T18:43:19.429Z,23.67
2019-01-30T18:45:46.772Z,26.13
2019-01-30T18:48:14.200Z,33.37
2019-01-30T18:50:41.587Z,31.53
2019-01-30T18:53:08.801Z,28.63
2019-01-30T18:55:36.204Z,27.70
2019-01-30T18:58:03.966Z,26.37
2019-01-30T19:00:49.232Z,25.67
2019-01-30T19:03:18.060Z,21.83
2019-01-30T19:05:45.652Z,23.20
2019-01-30T19:08:12.977Z,24.47
2019-01-30T19:10:40.335Z,29.53
2019-01-30T19:13:07.543Z,20.40
2019-01-30T19:15:34.911Z,26.57
2019-01-30T19:18:02.223Z,20.53
2019-01-30T19:20:32.576Z,21.70
2019-01-30T19:22:59.932Z,22.23
2019-01-30T19:25:27.447Z,24.77
2019-01-30T19:27:56.120Z,19.47
2019-01-30T19:30:25.724Z,21.53
2019-01-30T19:32:53.066Z,19.33
2019-01-30T19:35:20.269Z,16.53
2019-01-30T19:37:47.581Z,20.47
2019-01-30T19:40:15.171Z,21.20
2019-01-30T19:42:42.504Z,21.77
2019-01-30T19:45:11.339Z,22.77
2019-01-30T19:47:38.585Z,16.47
2019-01-30T19:50:09.808Z,18.90
2019-01-30T19:52:37.064Z,16.83
2019-01-30T19:55:04.936Z,19.10
2019-01-30T19:57:32.269Z,17.47
2019-01-30T19:59:59.607Z,17.50
2019-01-30T20:02:26.916Z,18.03
2019-01-30T20:04:54.173Z,16.27
2019-01-30T20:07:21.507Z,17.43
2019-01-30T20:09:48.639Z,16.43
2019-01-30T20:12:15.992Z,15.63
2019-01-30T20:14:43.282Z,19.73
2019-01-30T20:17:10.707Z,18.90
2019-01-30T20:19:38.064Z,19.60
2019-01-30T20:22:05.360Z,16.37
2019-01-30T20:24:32.671Z,16.30
2019-01-30T20:27:00.000Z,16.67
2019-01-30T20:29:27.325Z,14.57
2019-01-30T20:31:54.648Z,20.37
2019-01-30T20:34:22.095Z,15.23
2019-01-30T20:36:49.420Z,10.87
2019-01-30T20:39:16.706Z,15.77
2019-01-30T20:41:43.830Z,12.87
2019-01-30T20:44:11.064Z,15.10
2019-01-30T20:46:38.360Z,12.87
2019-01-30T20:49:05.628Z,8.97
2019-01-30T20:51:32.980Z,13.20
2019-01-30T20:54:00.729Z,11.90
2019-01-30T20:56:28.140Z,9.50
2019-01-30T20:58:55.388Z,13.47
2019-01-30T21:01:22.614Z,14.10
2019-01-30T21:03:49.947Z,10.60
2019-01-30T21:06:17.247Z,10.80
2019-01-30T21:08:44.589Z,10.03
2019-01-30T21:11:11.928Z,12.63
2019-01-30T21:13:39.224Z,11.13
2019-01-30T21:16:06.591Z,10.07
2019-01-30T21:18:33.804Z,10.70
2019-01-30T21:21:01.095Z,10.33
2019-01-30T21:23:28.312Z,10.70
2019-01-30T21:25:55.530Z,12.30
2019-01-30T21:28:22.780Z,11.57
2019-01-30T21:30:50.097Z,11.67
2019-01-30T21:33:17.472Z,10.10
2019-01-30T21:35:44.675Z,14.23
2019-01-30T21:38:12.012Z,11.43
2019-01-30T21:40:39.260Z,8.10
2019-01-30T21:43:06.559Z,11.43
2019-01-30T21:45:33.923Z,12.70
2019-01-30T21:48:01.228Z,11.13
2019-01-30T21:50:28.524Z,7.63
2019-01-30T21:52:55.892Z,11.20
2019-01-30T21:55:23.600Z,14.40
2019-01-30T21:57:50.926Z,11.03
2019-01-30T22:00:20.138Z,10.13
2019-01-30T22:02:47.372Z,10.47
2019-01-30T22:05:15.372Z,11.07
2019-01-30T22:07:42.659Z,11.90
2019-01-30T22:10:12.555Z,12.57
2019-01-30T22:12:39.750Z,11.60
2019-01-30T22:15:08.718Z,14.67
2019-01-30T22:17:35.977Z,8.97
2019-01-30T22:20:04.996Z,16.60
2019-01-30T22:22:32.297Z,16.00
2019-01-30T22:24:59.653Z,9.73
2019-01-30T22:27:26.992Z,13.07
2019-01-30T22:29:54.363Z,12.60
2019-01-30T22:32:21.580Z,10.57
2019-01-30T22:34:48.993Z,13.53
2019-01-30T22:37:16.344Z,11.70
2019-01-30T22:39:43.645Z,14.57
2019-01-30T22:42:10.879Z,10.93
2019-01-30T22:44:38.200Z,8.53
2019-01-30T22:47:05.699Z,11.43
2019-01-30T22:49:32.903Z,10.13
2019-01-30T22:52:00.627Z,14.37
2019-01-30T22:54:27.959Z,13.13
2019-01-30T22:56:55.171Z,11.37
2019-01-30T22:59:22.475Z,9.87
2019-01-30T23:01:52.723Z,11.97
2019-01-30T23:05:05.324Z,12.97
2019-01-30T23:07:37.794Z,10.47
2019-01-30T23:10:56.118Z,10.70
2019-01-30T23:13:48.540Z,8.30
2019-01-30T23:16:54.026Z,11.77
2019-01-30T23:19:30.464Z,14.80
2019-01-30T23:22:11.868Z,11.60
2019-01-30T23:25:17.295Z,14.27
2019-01-30T23:27:57.454Z,11.60
2019-01-30T23:30:59.497Z,11.13
2019-01-30T23:34:02.047Z,14.80
2019-01-30T23:37:17.358Z,9.53
2019-01-30T23:40:11.211Z,11.27
2019-01-30T23:42:55.123Z,12.63
2019-01-30T23:46:00.260Z,9.63
2019-01-30T23:49:00.835Z,8.13
2019-01-30T23:51:47.740Z,10.80
2019-01-30T23:55:09.247Z,10.43
2019-01-30T23:58:15.271Z,9.20
